Time;durP1;ratioP1;P1;durP2;ratioP2;P2;SDS_P1;SDS_P2;PMS_P1;PMS_P2;Temp;Humidity;BMP_temperature;BMP_pressure;BME280_temperature;BME280_humidity;BME280_pressure;Samples;Min_cycle;Max_cycle;Signal;HPM_P1;HPM_P2
2023/04/20 00:00:16;;;;;;;7.10;4.60;;;11.80;46.30;;;;;;5000348;28;20243;-50
2023/04/20 00:02:42;;;;;;;6.13;3.83;;;11.70;46.40;;;;;;5008946;28;20877;-52
2023/04/20 00:05:09;;;;;;;10.23;4.37;;;11.70;46.60;;;;;;4998185;28;20492;-51
2023/04/20 00:07:35;;;;;;;6.00;4.57;;;11.60;47.20;;;;;;5003776;28;20194;-51
2023/04/20 00:10:02;;;;;;;4.73;4.03;;;11.50;47.30;;;;;;5006766;28;21035;-50
2023/04/20 00:12:28;;;;;;;4.97;4.47;;;11.60;47.50;;;;;;5007199;28;20484;-50
2023/04/20 00:14:53;;;;;;;7.80;4.60;;;11.50;47.50;;;;;;5013275;28;20483;-50
2023/04/20 00:17:19;;;;;;;4.53;4.13;;;11.50;47.70;;;;;;5006914;28;20693;-49
2023/04/20 00:19:45;;;;;;;6.13;4.90;;;11.40;47.50;;;;;;5011622;28;20728;-48
2023/04/20 00:22:11;;;;;;;4.63;4.13;;;11.40;47.60;;;;;;5010710;28;20221;-53
2023/04/20 00:24:36;;;;;;;5.23;4.73;;;11.40;47.50;;;;;;5009743;28;20480;-49
2023/04/20 00:27:02;;;;;;;7.50;5.17;;;11.40;47.30;;;;;;5006098;28;20186;-50
2023/04/20 00:29:27;;;;;;;6.10;4.60;;;11.40;47.50;;;;;;5006336;28;20201;-50
2023/04/20 00:31:53;;;;;;;5.00;4.60;;;11.40;48.10;;;;;;5007898;28;20312;-49
2023/04/20 00:34:19;;;;;;;8.60;4.77;;;11.30;48.30;;;;;;5012084;28;20185;-51
2023/04/20 00:36:45;;;;;;;5.23;4.60;;;11.30;48.50;;;;;;5007129;28;20557;-50
2023/04/20 00:39:10;;;;;;;6.27;4.20;;;11.30;48.30;;;;;;5013276;28;20471;-49
2023/04/20 00:41:36;;;;;;;7.00;4.50;;;11.30;48.10;;;;;;5008289;28;20332;-49
2023/04/20 00:44:02;;;;;;;4.80;3.90;;;11.20;48.00;;;;;;5013085;28;20283;-48
2023/04/20 00:46:28;;;;;;;5.23;4.10;;;11.10;48.10;;;;;;5009078;28;20426;-49
2023/04/20 00:48:54;;;;;;;6.60;4.83;;;11.00;48.20;;;;;;5014020;28;20192;-49
2023/04/20 00:51:22;;;;;;;5.40;4.37;;;11.00;48.80;;;;;;5010694;28;20202;-53
2023/04/20 00:53:48;;;;;;;6.43;4.90;;;10.90;49.10;;;;;;5014113;28;20473;-49
2023/04/20 00:56:15;;;;;;;6.17;5.00;;;10.90;49.20;;;;;;5013145;28;20459;-51
2023/04/20 00:58:44;;;;;;;5.80;4.87;;;10.90;49.30;;;;;;5010818;28;20201;-49
2023/04/20 01:01:10;;;;;;;6.30;5.63;;;10.90;49.40;;;;;;5009279;28;20864;-49
2023/04/20 01:03:37;;;;;;;8.83;6.70;;;10.80;49.30;;;;;;5001791;28;20924;-49
2023/04/20 01:06:03;;;;;;;7.13;5.70;;;10.80;49.50;;;;;;4998696;28;20532;-49
2023/04/20 01:08:29;;;;;;;5.97;5.07;;;10.70;49.70;;;;;;5001679;28;20453;-49
2023/04/20 01:10:55;;;;;;;6.37;4.80;;;10.70;49.70;;;;;;5004166;28;20470;-49
2023/04/20 01:13:20;;;;;;;5.60;4.77;;;10.60;49.70;;;;;;4999354;28;20246;-51
2023/04/20 01:15:46;;;;;;;7.07;4.80;;;10.60;49.70;;;;;;5008616;28;20198;-51
2023/04/20 01:18:12;;;;;;;5.50;4.83;;;10.60;49.80;;;;;;5004766;28;20198;-49
2023/04/20 01:20:38;;;;;;;5.90;4.83;;;10.50;49.50;;;;;;4999425;28;20193;-51
2023/04/20 01:23:04;;;;;;;8.40;5.00;;;10.40;49.20;;;;;;5005656;28;20440;-50
2023/04/20 01:25:29;;;;;;;5.93;5.10;;;10.40;49.20;;;;;;5005214;28;20700;-49
2023/04/20 01:27:55;;;;;;;7.23;5.90;;;10.30;49.10;;;;;;5000034;28;20197;-52
2023/04/20 01:30:21;;;;;;;11.50;6.40;;;10.20;49.30;;;;;;5007158;28;20201;-49
2023/04/20 01:32:46;;;;;;;10.70;6.13;;;10.10;49.70;;;;;;5007239;28;20353;-51
2023/04/20 01:35:12;;;;;;;7.40;5.70;;;10.10;49.90;;;;;;5009066;28;20202;-49
2023/04/20 01:37:39;;;;;;;11.83;5.80;;;10.00;50.10;;;;;;5012051;28;20259;-50
2023/04/20 01:40:07;;;;;;;8.00;5.43;;;10.00;50.10;;;;;;5006000;28;20197;-49
2023/04/20 01:42:33;;;;;;;6.57;5.43;;;10.00;50.10;;;;;;5005996;28;20460;-49
2023/04/20 01:44:58;;;;;;;9.40;5.20;;;10.00;50.10;;;;;;5011599;28;20480;-53
2023/04/20 01:47:24;;;;;;;8.47;5.07;;;10.00;50.40;;;;;;5009182;28;20198;-52
2023/04/20 01:49:49;;;;;;;9.63;5.40;;;9.90;51.20;;;;;;5010146;28;20197;-49
2023/04/20 01:52:15;;;;;;;6.43;5.50;;;10.00;50.60;;;;;;5011492;28;20206;-53
2023/04/20 01:54:41;;;;;;;6.30;5.13;;;9.90;51.70;;;;;;5007157;28;20238;-50
2023/04/20 01:57:06;;;;;;;6.10;5.10;;;10.00;50.90;;;;;;5013116;28;20229;-50
2023/04/20 01:59:32;;;;;;;6.20;5.60;;;10.00;50.80;;;;;;5008033;28;20247;-54
2023/04/20 02:01:57;;;;;;;8.17;5.40;;;10.00;50.80;;;;;;5006952;28;20197;-54
2023/04/20 02:04:23;;;;;;;7.70;4.97;;;10.00;50.80;;;;;;5011713;28;20700;-50
2023/04/20 02:06:49;;;;;;;6.33;4.83;;;10.00;50.90;;;;;;5002618;28;20199;-52
2023/04/20 02:09:15;;;;;;;6.07;5.17;;;9.90;51.70;;;;;;5009434;28;20440;-52
2023/04/20 02:11:40;;;;;;;5.60;4.80;;;9.90;51.90;;;;;;5011124;28;20362;-52
2023/04/20 02:14:06;;;;;;;5.53;4.47;;;9.90;51.90;;;;;;5007564;28;20198;-52
2023/04/20 02:16:31;;;;;;;8.53;5.03;;;9.90;51.70;;;;;;5009507;28;20696;-49
2023/04/20 02:18:57;;;;;;;8.70;5.87;;;9.80;51.60;;;;;;5011703;28;20229;-51
2023/04/20 02:21:23;;;;;;;5.77;4.93;;;9.80;51.70;;;;;;5011430;28;20244;-53
2023/04/20 02:23:48;;;;;;;5.90;4.70;;;9.80;51.60;;;;;;5003516;28;20236;-53
2023/04/20 02:26:15;;;;;;;6.17;4.80;;;9.70;51.50;;;;;;5009758;28;20206;-51
2023/04/20 02:28:41;;;;;;;7.23;5.07;;;9.70;51.70;;;;;;5004756;28;20276;-51
2023/04/20 02:31:07;;;;;;;6.03;4.20;;;9.60;51.70;;;;;;5009913;28;20437;-50
2023/04/20 02:33:32;;;;;;;5.50;4.90;;;9.60;51.90;;;;;;5003512;28;20487;-51
2023/04/20 02:35:58;;;;;;;6.23;4.90;;;9.50;52.00;;;;;;5010290;28;20202;-51
2023/04/20 02:38:23;;;;;;;6.67;4.63;;;9.50;52.20;;;;;;5010513;28;20193;-52
2023/04/20 02:40:49;;;;;;;6.83;4.63;;;9.50;52.50;;;;;;5008070;28;20197;-49
2023/04/20 02:43:15;;;;;;;3.83;3.53;;;9.40;52.50;;;;;;5008261;28;20190;-50
2023/04/20 02:45:40;;;;;;;4.73;4.33;;;9.40;52.50;;;;;;5008484;28;20812;-51
2023/04/20 02:48:06;;;;;;;5.40;4.10;;;9.40;52.30;;;;;;5009737;28;20549;-50
2023/04/20 02:50:32;;;;;;;6.93;4.20;;;9.20;52.50;;;;;;5010971;28;20617;-52
2023/04/20 02:52:57;;;;;;;5.53;3.43;;;9.10;53.00;;;;;;4995490;28;20325;-53
2023/04/20 02:55:23;;;;;;;4.40;4.00;;;9.00;53.00;;;;;;5011344;28;21022;-50
2023/04/20 02:57:49;;;;;;;6.20;4.10;;;9.10;53.10;;;;;;5006733;28;20201;-49
2023/04/20 03:00:14;;;;;;;4.47;3.97;;;9.10;53.00;;;;;;5011652;28;20190;-53
2023/04/20 03:02:40;;;;;;;3.93;3.60;;;9.10;52.90;;;;;;5003469;28;20213;-49
2023/04/20 03:05:06;;;;;;;5.90;3.90;;;9.10;52.80;;;;;;5010111;28;20264;-50
2023/04/20 03:07:32;;;;;;;4.43;4.03;;;9.10;52.80;;;;;;5005977;28;20202;-51
2023/04/20 03:09:57;;;;;;;4.00;3.60;;;9.10;52.90;;;;;;5006755;28;20206;-49
2023/04/20 03:12:23;;;;;;;4.23;3.83;;;9.00;52.80;;;;;;5008037;28;20264;-54
2023/04/20 03:14:48;;;;;;;4.60;4.10;;;9.00;52.90;;;;;;5007410;28;20602;-49
2023/04/20 03:17:14;;;;;;;5.20;4.80;;;9.00;53.00;;;;;;5003424;28;20236;-51
2023/04/20 03:19:40;;;;;;;3.77;3.47;;;8.90;53.30;;;;;;5009902;28;20289;-49
2023/04/20 03:22:06;;;;;;;5.67;3.70;;;8.90;53.40;;;;;;5008751;28;20201;-50
2023/04/20 03:24:31;;;;;;;4.90;3.50;;;8.90;53.30;;;;;;5014083;28;20498;-49
2023/04/20 03:26:57;;;;;;;4.53;3.77;;;9.00;53.20;;;;;;5007205;28;20206;-50
2023/04/20 03:29:22;;;;;;;4.70;4.10;;;9.00;53.10;;;;;;5001157;28;20248;-49
2023/04/20 03:31:48;;;;;;;5.20;4.63;;;8.90;52.90;;;;;;4997886;28;20205;-49
2023/04/20 03:34:13;;;;;;;5.90;4.37;;;8.90;52.80;;;;;;4992848;28;20200;-48
2023/04/20 03:36:39;;;;;;;5.00;4.50;;;8.90;52.70;;;;;;5000697;28;20229;-50
2023/04/20 03:39:05;;;;;;;4.80;4.30;;;8.90;52.80;;;;;;4995569;28;22292;-51
2023/04/20 03:41:30;;;;;;;4.43;4.03;;;8.80;52.80;;;;;;4995262;28;20193;-49
2023/04/20 03:43:56;;;;;;;4.87;4.20;;;8.80;53.00;;;;;;5002251;28;20284;-48
2023/04/20 03:46:22;;;;;;;4.30;3.87;;;8.80;53.10;;;;;;5009529;28;20545;-49
2023/04/20 03:48:47;;;;;;;7.20;4.07;;;8.70;53.10;;;;;;5005273;28;20264;-50
2023/04/20 03:51:13;;;;;;;7.70;3.83;;;8.80;53.80;;;;;;4996507;28;20283;-49
2023/04/20 03:53:39;;;;;;;4.30;3.90;;;9.00;55.70;;;;;;5000407;28;20230;-49
2023/04/20 03:56:04;;;;;;;4.77;4.37;;;9.40;57.00;;;;;;5007881;28;20260;-50
2023/04/20 03:58:30;;;;;;;3.70;3.40;;;9.70;55.40;;;;;;5011292;28;20198;-49
2023/04/20 04:01:05;;;;;;;4.77;4.33;;;9.90;53.50;;;;;;5001113;28;20201;-50
2023/04/20 04:03:32;;;;;;;5.30;4.80;;;9.90;52.10;;;;;;4999229;28;20264;-53
2023/04/20 04:05:57;;;;;;;4.70;4.30;;;9.90;51.30;;;;;;4996500;28;20488;-51
2023/04/20 04:08:23;;;;;;;6.10;4.67;;;9.70;51.10;;;;;;5000045;28;20518;-54
2023/04/20 04:10:48;;;;;;;6.17;4.80;;;9.60;51.40;;;;;;5003331;28;20664;-51
2023/04/20 04:13:14;;;;;;;6.60;4.80;;;9.40;51.90;;;;;;5003013;28;20282;-52
2023/04/20 04:15:40;;;;;;;4.77;4.27;;;9.30;52.10;;;;;;5008513;28;20202;-49
2023/04/20 04:18:05;;;;;;;6.43;4.90;;;9.10;52.30;;;;;;5010051;28;20673;-52
2023/04/20 04:20:31;;;;;;;4.90;4.40;;;9.10;52.80;;;;;;5010353;28;20198;-50
2023/04/20 04:22:57;;;;;;;5.90;4.50;;;9.00;52.80;;;;;;5009200;28;20638;-54
2023/04/20 04:25:22;;;;;;;5.13;4.43;;;9.00;52.90;;;;;;5009759;28;20231;-49
2023/04/20 04:27:49;;;;;;;7.57;5.27;;;8.90;52.90;;;;;;5010623;28;20416;-49
2023/04/20 04:30:16;;;;;;;5.40;4.17;;;8.90;53.20;;;;;;5010041;28;20193;-53
2023/04/20 04:32:43;;;;;;;5.10;4.60;;;8.80;53.30;;;;;;5009856;28;20440;-49
2023/04/20 04:35:09;;;;;;;4.83;4.43;;;8.80;53.30;;;;;;5008803;28;20528;-51
2023/04/20 04:37:35;;;;;;;6.03;4.90;;;8.80;53.10;;;;;;5008298;28;20532;-53
2023/04/20 04:40:01;;;;;;;5.13;4.60;;;8.80;53.40;;;;;;5006706;28;20701;-50
2023/04/20 04:42:27;;;;;;;6.73;5.70;;;8.70;53.30;;;;;;5007674;28;20535;-51
2023/04/20 04:44:55;;;;;;;6.23;5.63;;;8.70;53.30;;;;;;5002332;28;21184;-51
2023/04/20 04:47:21;;;;;;;5.73;5.03;;;8.70;53.30;;;;;;5004667;28;20454;-48
2023/04/20 04:49:47;;;;;;;5.53;4.87;;;8.80;53.40;;;;;;5007723;28;20512;-52
2023/04/20 04:52:13;;;;;;;8.43;5.00;;;8.70;53.40;;;;;;4998204;28;20874;-48
2023/04/20 04:54:39;;;;;;;6.23;4.60;;;8.60;53.80;;;;;;5007805;28;20468;-51
2023/04/20 04:57:06;;;;;;;5.30;4.67;;;8.50;54.10;;;;;;5003836;28;20960;-52
2023/04/20 04:59:32;;;;;;;5.13;4.57;;;8.50;53.80;;;;;;5006899;28;20460;-52
2023/04/20 05:01:57;;;;;;;6.30;4.73;;;8.40;54.10;;;;;;5007035;28;20201;-50
2023/04/20 05:04:23;;;;;;;6.67;5.57;;;8.30;54.10;;;;;;5011894;28;20205;-48
2023/04/20 05:06:48;;;;;;;6.80;5.17;;;8.40;54.50;;;;;;5013853;28;20214;-52
2023/04/20 05:09:14;;;;;;;6.53;5.40;;;8.40;55.20;;;;;;5012841;28;20212;-51
2023/04/20 05:11:40;;;;;;;6.00;5.10;;;8.40;54.50;;;;;;5013464;28;20197;-48
2023/04/20 05:14:05;;;;;;;6.50;5.47;;;8.40;54.40;;;;;;5013887;28;20432;-48
2023/04/20 05:16:31;;;;;;;6.67;4.93;;;8.50;54.40;;;;;;5013853;28;20273;-48
2023/04/20 05:18:57;;;;;;;6.00;5.43;;;8.50;54.30;;;;;;5013601;28;20937;-52
2023/04/20 05:21:22;;;;;;;6.57;5.37;;;8.60;54.30;;;;;;5009745;28;20197;-51
2023/04/20 05:23:48;;;;;;;7.93;5.10;;;8.60;54.20;;;;;;5005723;28;20190;-50
2023/04/20 05:26:13;;;;;;;7.97;5.30;;;8.60;54.10;;;;;;5005205;28;20202;-49
2023/04/20 05:28:39;;;;;;;5.73;5.20;;;8.60;54.50;;;;;;5001541;28;20281;-50
2023/04/20 05:31:06;;;;;;;8.50;5.37;;;8.60;54.50;;;;;;5002940;28;20190;-49
2023/04/20 05:33:32;;;;;;;5.83;5.10;;;8.70;54.60;;;;;;5007658;28;20216;-51
2023/04/20 05:35:58;;;;;;;8.30;5.37;;;8.70;54.60;;;;;;5003271;28;20457;-50
2023/04/20 05:38:24;;;;;;;6.40;5.10;;;8.80;54.70;;;;;;5005418;28;20196;-51
2023/04/20 05:40:50;;;;;;;6.57;5.40;;;8.80;54.60;;;;;;5005369;28;20190;-53
2023/04/20 05:43:17;;;;;;;5.23;4.83;;;8.90;54.60;;;;;;5005150;28;20445;-48
2023/04/20 05:45:47;;;;;;;6.33;5.63;;;8.90;54.90;;;;;;5001592;28;20495;-54
2023/04/20 05:48:12;;;;;;;7.13;6.43;;;8.70;55.20;;;;;;5008394;28;20441;-53
2023/04/20 05:50:38;;;;;;;7.80;5.83;;;8.60;56.10;;;;;;5008795;28;20947;-51
2023/04/20 05:53:04;;;;;;;6.23;4.87;;;8.60;56.30;;;;;;5007253;28;20768;-52
2023/04/20 05:55:29;;;;;;;7.57;6.03;;;8.60;56.20;;;;;;5003200;28;20191;-51
2023/04/20 05:57:55;;;;;;;6.50;5.80;;;8.50;56.30;;;;;;4997423;28;20448;-53
2023/04/20 06:00:21;;;;;;;7.30;6.30;;;8.60;56.80;;;;;;5005842;28;20244;-52
2023/04/20 06:02:47;;;;;;;6.97;5.47;;;8.80;56.50;;;;;;5000965;28;20205;-49
2023/04/20 06:05:12;;;;;;;7.20;5.50;;;8.90;56.10;;;;;;5004566;28;20951;-52
2023/04/20 06:07:39;;;;;;;8.40;6.20;;;9.10;55.90;;;;;;5003506;28;20191;-52
2023/04/20 06:10:05;;;;;;;7.20;5.80;;;9.10;55.60;;;;;;5002415;28;20231;-50
2023/04/20 06:12:31;;;;;;;7.57;5.90;;;9.30;55.70;;;;;;5010363;28;20577;-50
2023/04/20 06:14:58;;;;;;;6.07;5.50;;;9.40;55.30;;;;;;5000727;28;21137;-49
2023/04/20 06:17:23;;;;;;;7.90;6.00;;;9.30;55.10;;;;;;4998951;28;20441;-50
2023/04/20 06:19:49;;;;;;;8.20;6.30;;;9.20;55.70;;;;;;5006732;28;21034;-50
2023/04/20 06:22:15;;;;;;;6.30;5.70;;;9.20;56.00;;;;;;4999080;28;20202;-49
2023/04/20 06:24:41;;;;;;;11.17;6.20;;;9.30;56.10;;;;;;4997494;28;20643;-51
2023/04/20 06:27:10;;;;;;;9.70;5.93;;;9.50;55.80;;;;;;5001126;28;20532;-53
2023/04/20 06:29:36;;;;;;;7.50;6.70;;;9.70;55.60;;;;;;5003421;28;20201;-50
2023/04/20 06:32:02;;;;;;;8.50;5.70;;;9.80;55.30;;;;;;4999950;28;20792;-51
2023/04/20 06:34:27;;;;;;;7.63;6.53;;;10.10;54.30;;;;;;5003355;28;20205;-50
2023/04/20 06:36:53;;;;;;;7.10;6.40;;;10.30;53.80;;;;;;5007812;28;20445;-50
2023/04/20 06:39:19;;;;;;;6.07;5.57;;;10.50;54.90;;;;;;5008096;28;20202;-49
2023/04/20 06:41:44;;;;;;;5.90;5.37;;;10.70;54.30;;;;;;5007104;28;20217;-48
2023/04/20 06:44:10;;;;;;;6.90;5.50;;;11.00;53.70;;;;;;5010005;28;20988;-49
2023/04/20 06:46:36;;;;;;;6.53;5.93;;;11.10;52.70;;;;;;5005355;28;20198;-50
2023/04/20 06:49:02;;;;;;;6.53;5.93;;;11.10;52.20;;;;;;4999023;28;20240;-49
2023/04/20 06:51:28;;;;;;;7.70;6.60;;;11.40;53.00;;;;;;5007994;28;20317;-49
2023/04/20 06:53:54;;;;;;;8.73;6.40;;;11.80;52.20;;;;;;5005767;28;20545;-49
2023/04/20 06:56:20;;;;;;;6.57;5.87;;;12.10;51.30;;;;;;5007173;28;20445;-51
2023/04/20 06:58:46;;;;;;;8.00;5.57;;;12.40;50.70;;;;;;5010568;28;20450;-50
2023/04/20 07:01:12;;;;;;;6.77;6.00;;;12.70;50.30;;;;;;4992109;28;20547;-49
2023/04/20 07:03:37;;;;;;;8.57;7.00;;;12.90;49.30;;;;;;5007681;28;20202;-49
2023/04/20 07:06:05;;;;;;;6.90;5.90;;;13.10;48.60;;;;;;4996897;28;20375;-53
2023/04/20 07:08:34;;;;;;;6.30;5.70;;;13.30;48.40;;;;;;4999398;28;20198;-54
2023/04/20 07:11:00;;;;;;;9.13;6.40;;;13.50;48.00;;;;;;4999838;28;20613;-51
2023/04/20 07:13:27;;;;;;;7.30;6.03;;;13.60;47.60;;;;;;5005585;28;21094;-50
2023/04/20 07:15:52;;;;;;;7.43;6.40;;;13.40;47.30;;;;;;5003061;28;20198;-49
2023/04/20 07:18:18;;;;;;;7.47;6.57;;;13.40;47.60;;;;;;5001615;28;20445;-49
2023/04/20 07:20:44;;;;;;;11.47;7.17;;;13.50;47.50;;;;;;4997995;28;20229;-48
2023/04/20 07:23:09;;;;;;;7.93;6.50;;;13.50;47.20;;;;;;5004507;28;20627;-49
2023/04/20 07:25:35;;;;;;;7.10;6.40;;;13.50;47.40;;;;;;5003620;28;20309;-50
2023/04/20 07:28:00;;;;;;;6.40;5.40;;;13.60;47.40;;;;;;5004750;28;20263;-50
2023/04/20 07:30:30;;;;;;;6.90;6.20;;;13.60;47.10;;;;;;4994688;28;20289;-52
2023/04/20 07:32:55;;;;;;;7.53;6.40;;;13.70;47.30;;;;;;5002313;28;20509;-49
2023/04/20 07:35:21;;;;;;;8.80;6.70;;;13.70;46.80;;;;;;5006530;28;20453;-52
2023/04/20 07:37:47;;;;;;;7.83;6.50;;;13.50;46.60;;;;;;5001224;28;20252;-50
2023/04/20 07:40:13;;;;;;;7.53;6.60;;;13.20;47.50;;;;;;4997216;28;20444;-50
2023/04/20 07:42:38;;;;;;;6.97;6.30;;;13.10;48.10;;;;;;5006713;28;20260;-50
2023/04/20 07:45:05;;;;;;;7.83;6.37;;;13.30;47.90;;;;;;5006058;28;20231;-49
2023/04/20 07:47:32;;;;;;;7.87;6.70;;;13.40;47.90;;;;;;5006398;28;20194;-49
2023/04/20 07:49:58;;;;;;;7.60;6.70;;;13.50;47.70;;;;;;4996361;28;20864;-50
2023/04/20 07:52:24;;;;;;;7.63;6.80;;;13.60;47.60;;;;;;4998655;28;21118;-52
2023/04/20 07:54:52;;;;;;;7.60;6.90;;;13.50;47.50;;;;;;5006956;28;20251;-52
2023/04/20 07:57:19;;;;;;;9.10;6.50;;;12.90;48.50;;;;;;5006479;28;20448;-50
2023/04/20 07:59:45;;;;;;;7.10;6.43;;;13.20;48.90;;;;;;5000789;28;20457;-53
2023/04/20 08:02:11;;;;;;;9.13;7.13;;;13.30;48.50;;;;;;5003855;28;20445;-50
2023/04/20 08:04:36;;;;;;;8.03;6.63;;;13.60;47.90;;;;;;5001168;28;20491;-50
2023/04/20 08:07:02;;;;;;;8.30;7.07;;;13.50;47.60;;;;;;5004952;28;20202;-52
2023/04/20 08:09:28;;;;;;;6.20;5.60;;;13.40;48.00;;;;;;5005599;28;20387;-51
2023/04/20 08:11:54;;;;;;;7.10;6.27;;;13.50;48.10;;;;;;5005932;28;20249;-49
2023/04/20 08:14:19;;;;;;;8.50;7.10;;;13.40;48.10;;;;;;4996803;28;20197;-50
2023/04/20 08:16:51;;;;;;;6.60;5.97;;;13.40;47.90;;;;;;5001249;28;20202;-53
2023/04/20 08:19:17;;;;;;;6.70;5.40;;;13.20;47.80;;;;;;5001948;28;20200;-49
2023/04/20 08:21:42;;;;;;;8.40;6.83;;;13.20;48.60;;;;;;4998850;28;20820;-51
2023/04/20 08:24:08;;;;;;;7.43;6.73;;;13.20;48.40;;;;;;5006222;28;20234;-50
2023/04/20 08:26:35;;;;;;;12.40;7.23;;;13.10;48.30;;;;;;5002260;28;20204;-49
2023/04/20 08:29:01;;;;;;;8.23;7.40;;;13.00;48.20;;;;;;4994715;28;20445;-53
2023/04/20 08:31:27;;;;;;;7.70;6.90;;;13.10;48.70;;;;;;4990857;28;20442;-50
2023/04/20 08:33:53;;;;;;;9.97;7.10;;;13.00;48.70;;;;;;4994364;28;20441;-51
2023/04/20 08:36:19;;;;;;;7.70;6.70;;;12.90;49.10;;;;;;4992889;28;20436;-50
2023/04/20 08:38:45;;;;;;;9.77;7.07;;;12.80;49.10;;;;;;5006277;28;20201;-52
2023/04/20 08:41:14;;;;;;;8.40;7.60;;;12.90;49.40;;;;;;4999998;28;21077;-54
2023/04/20 08:43:40;;;;;;;8.03;7.23;;;12.90;49.10;;;;;;4998614;28;20206;-49
2023/04/20 08:46:06;;;;;;;8.00;7.23;;;12.70;49.30;;;;;;5005837;28;20550;-52
2023/04/20 08:48:36;;;;;;;8.67;7.87;;;12.10;50.40;;;;;;4996207;28;20463;-50
2023/04/20 08:51:05;;;;;;;8.93;8.03;;;11.90;51.50;;;;;;5000399;28;20952;-50
2023/04/20 08:53:31;;;;;;;10.17;7.87;;;12.10;51.50;;;;;;4997141;28;20563;-53
2023/04/20 08:55:57;;;;;;;10.07;7.43;;;12.10;51.60;;;;;;5002404;28;20468;-50
2023/04/20 08:58:32;;;;;;;8.53;7.63;;;11.80;51.90;;;;;;5000325;28;20441;-49
2023/04/20 09:00:59;;;;;;;9.20;7.80;;;11.70;52.00;;;;;;5005325;28;20444;-49
2023/04/20 09:03:36;;;;;;;8.67;7.43;;;11.70;52.20;;;;;;5003426;28;20493;-50
2023/04/20 09:06:02;;;;;;;7.07;6.40;;;11.50;52.70;;;;;;5000866;28;20523;-54
2023/04/20 09:08:35;;;;;;;12.97;7.63;;;11.60;53.10;;;;;;4995609;28;20923;-52
2023/04/20 09:11:01;;;;;;;12.10;7.63;;;11.60;52.70;;;;;;4996840;28;20453;-51
2023/04/20 09:13:26;;;;;;;8.33;7.50;;;11.60;52.90;;;;;;5009798;28;20456;-55
2023/04/20 09:15:52;;;;;;;9.30;7.50;;;11.70;52.50;;;;;;5000720;28;20677;-50
2023/04/20 09:18:17;;;;;;;9.80;7.43;;;12.00;52.30;;;;;;5008928;28;20205;-51
2023/04/20 09:20:43;;;;;;;9.93;8.50;;;12.30;51.80;;;;;;5007770;28;20603;-50
2023/04/20 09:23:12;;;;;;;10.63;8.87;;;12.30;51.60;;;;;;4998910;28;20191;-53
2023/04/20 09:25:39;;;;;;;13.60;8.00;;;12.40;51.30;;;;;;5005239;28;20225;-49
2023/04/20 09:28:05;;;;;;;7.13;6.43;;;12.60;51.00;;;;;;5007441;28;20453;-48
2023/04/20 09:30:50;;;;;;;10.13;7.60;;;12.80;50.80;;;;;;5003876;28;20972;-51
2023/04/20 09:33:15;;;;;;;8.33;7.40;;;12.80;50.50;;;;;;4998121;28;20461;-51
2023/04/20 09:35:42;;;;;;;10.33;7.93;;;12.80;50.70;;;;;;5004108;28;20994;-49
2023/04/20 09:38:09;;;;;;;10.30;7.80;;;13.00;50.80;;;;;;5003919;28;20827;-52
2023/04/20 09:40:35;;;;;;;10.30;8.30;;;13.10;50.90;;;;;;5005107;28;20932;-54
2023/04/20 09:43:17;;;;;;;10.67;7.50;;;13.20;50.60;;;;;;5009651;28;20464;-50
2023/04/20 09:45:43;;;;;;;8.63;7.83;;;13.40;50.30;;;;;;5010517;28;20631;-51
2023/04/20 09:48:09;;;;;;;8.20;7.10;;;13.40;50.00;;;;;;5002114;28;20449;-53
2023/04/20 09:50:36;;;;;;;11.47;7.77;;;13.60;49.90;;;;;;5001177;28;20190;-48
2023/04/20 09:53:05;;;;;;;11.77;7.70;;;13.60;49.90;;;;;;5003839;28;20533;-51
2023/04/20 09:55:31;;;;;;;8.50;7.60;;;13.60;50.00;;;;;;5008713;28;20452;-52
2023/04/20 09:58:00;;;;;;;8.40;6.90;;;13.70;49.60;;;;;;5010847;28;20456;-51
2023/04/20 10:00:26;;;;;;;9.50;8.40;;;13.70;49.40;;;;;;5010089;28;20488;-51
2023/04/20 10:02:51;;;;;;;8.67;7.50;;;13.80;49.50;;;;;;5005829;28;20461;-54
2023/04/20 10:05:17;;;;;;;10.17;7.50;;;13.80;49.40;;;;;;5025620;28;20265;-54
2023/04/20 10:07:43;;;;;;;9.97;8.20;;;13.80;49.10;;;;;;5002022;28;20194;-54
2023/04/20 10:10:11;;;;;;;9.50;8.33;;;13.90;49.10;;;;;;5000605;28;20199;-55
2023/04/20 10:12:50;;;;;;;9.40;7.07;;;13.90;49.00;;;;;;5004858;28;20611;-51
2023/04/20 10:15:16;;;;;;;7.07;6.37;;;13.90;49.30;;;;;;5004191;28;20890;-52
2023/04/20 10:17:42;;;;;;;8.33;7.50;;;13.90;49.30;;;;;;5012152;28;20430;-51
2023/04/20 10:20:27;;;;;;;8.87;7.37;;;13.80;49.90;;;;;;5011842;28;20920;-54
2023/04/20 10:23:04;;;;;;;8.40;7.60;;;13.60;51.10;;;;;;5012025;28;20924;-55
2023/04/20 10:25:30;;;;;;;7.30;6.60;;;13.60;51.90;;;;;;5010793;28;20538;-54
2023/04/20 10:28:04;;;;;;;8.47;7.40;;;13.60;51.60;;;;;;5012356;28;20841;-55
2023/04/20 10:30:31;;;;;;;8.17;7.40;;;13.40;52.90;;;;;;5002563;28;20226;-54
2023/04/20 10:33:06;;;;;;;9.07;7.60;;;13.30;54.10;;;;;;5011790;28;20432;-54
2023/04/20 10:35:48;;;;;;;8.20;6.83;;;13.50;54.50;;;;;;5011821;28;20495;-54
2023/04/20 10:38:15;;;;;;;7.90;7.10;;;13.60;54.40;;;;;;5011911;28;20437;-54
2023/04/20 10:40:40;;;;;;;8.40;7.60;;;13.50;55.10;;;;;;5007464;28;20487;-51
2023/04/20 10:43:21;;;;;;;8.33;7.33;;;13.40;55.40;;;;;;5006596;28;20913;-54
2023/04/20 10:45:48;;;;;;;8.63;7.50;;;13.40;56.00;;;;;;5006070;28;20689;-55
2023/04/20 10:48:14;;;;;;;9.93;7.37;;;13.50;56.10;;;;;;5011664;28;20424;-55
2023/04/20 10:50:39;;;;;;;7.60;6.80;;;12.90;56.10;;;;;;5011312;28;20436;-54
2023/04/20 10:53:15;;;;;;;6.67;6.00;;;13.00;56.10;;;;;;4992503;28;20309;-51
2023/04/20 10:55:41;;;;;;;7.53;6.63;;;13.20;56.10;;;;;;5004750;28;20194;-55
2023/04/20 10:58:07;;;;;;;7.77;6.83;;;13.40;56.10;;;;;;5009678;28;20490;-53
2023/04/20 11:00:32;;;;;;;7.00;6.33;;;13.60;56.10;;;;;;5008720;28;20194;-54
2023/04/20 11:02:58;;;;;;;7.40;6.70;;;13.30;55.90;;;;;;5010816;28;20996;-54
2023/04/20 11:05:26;;;;;;;7.17;6.43;;;13.00;56.60;;;;;;5010558;28;20761;-54
2023/04/20 11:07:55;;;;;;;7.87;6.80;;;13.00;57.40;;;;;;5009878;28;20233;-54
2023/04/20 11:10:22;;;;;;;8.13;7.33;;;13.20;58.00;;;;;;5010221;28;20916;-52
2023/04/20 11:12:48;;;;;;;8.60;7.30;;;13.30;58.30;;;;;;5003957;28;20440;-54
2023/04/20 11:15:15;;;;;;;9.10;8.13;;;13.20;59.10;;;;;;4999177;28;20511;-55
2023/04/20 11:17:41;;;;;;;9.40;8.40;;;13.50;59.30;;;;;;5000870;28;20209;-54
2023/04/20 11:20:12;;;;;;;9.07;8.17;;;13.20;58.50;;;;;;4996968;28;20523;-54
2023/04/20 11:22:39;;;;;;;10.77;9.37;;;12.80;59.90;;;;;;5006008;28;20499;-54
2023/04/20 11:25:06;;;;;;;10.67;9.20;;;13.00;61.70;;;;;;5007232;28;20524;-54
2023/04/20 11:27:33;;;;;;;8.53;7.73;;;12.90;59.80;;;;;;5005066;28;20875;-50
2023/04/20 11:30:03;;;;;;;10.03;9.00;;;12.90;60.20;;;;;;5008046;28;20557;-54
2023/04/20 11:32:29;;;;;;;10.03;8.70;;;12.70;59.50;;;;;;5001163;28;20498;-53
2023/04/20 11:35:12;;;;;;;9.40;8.50;;;12.70;61.50;;;;;;5008643;28;20449;-54
2023/04/20 11:37:49;;;;;;;8.93;8.03;;;12.70;62.80;;;;;;5004672;28;20194;-54
2023/04/20 11:40:16;;;;;;;8.87;7.90;;;12.90;60.50;;;;;;5002913;28;20541;-49
2023/04/20 11:42:42;;;;;;;8.93;8.03;;;13.00;59.40;;;;;;4999329;28;20460;-52
2023/04/20 11:45:08;;;;;;;9.53;8.43;;;13.10;58.70;;;;;;5009334;28;20488;-50
2023/04/20 11:47:33;;;;;;;9.23;8.17;;;13.50;58.40;;;;;;5010998;28;20864;-49
2023/04/20 11:50:00;;;;;;;7.77;7.00;;;13.70;56.80;;;;;;5006304;28;20583;-53
2023/04/20 11:52:26;;;;;;;9.27;8.37;;;13.40;55.30;;;;;;5004962;28;20197;-49
2023/04/20 11:54:51;;;;;;;9.30;7.87;;;13.30;56.30;;;;;;4999797;28;20567;-51
2023/04/20 11:57:17;;;;;;;10.10;8.03;;;13.00;55.80;;;;;;5010275;28;21036;-52
2023/04/20 11:59:46;;;;;;;8.53;7.73;;;12.80;57.00;;;;;;5004219;28;20190;-52
2023/04/20 12:02:12;;;;;;;10.07;7.17;;;12.70;56.60;;;;;;5008380;28;20198;-53
2023/04/20 12:04:38;;;;;;;10.57;8.00;;;13.00;55.70;;;;;;5007883;28;20476;-52
2023/04/20 12:07:03;;;;;;;9.40;7.40;;;13.10;55.90;;;;;;4996889;28;20520;-52
2023/04/20 12:09:29;;;;;;;9.10;7.90;;;13.20;55.90;;;;;;4995215;28;20204;-53
2023/04/20 12:11:55;;;;;;;9.10;8.23;;;13.40;56.00;;;;;;5004300;28;20627;-53
2023/04/20 12:14:20;;;;;;;7.17;6.57;;;12.90;55.40;;;;;;5008532;28;20653;-52
2023/04/20 12:16:46;;;;;;;8.10;7.30;;;12.50;55.90;;;;;;5007474;28;20194;-49
2023/04/20 12:19:12;;;;;;;7.40;6.70;;;12.20;57.10;;;;;;5012460;28;20648;-49
2023/04/20 12:21:37;;;;;;;7.80;6.90;;;12.30;57.30;;;;;;5013975;28;20847;-52
2023/04/20 12:24:03;;;;;;;8.53;6.80;;;12.40;56.80;;;;;;5007515;28;20646;-52
2023/04/20 12:26:29;;;;;;;7.03;6.40;;;12.30;56.60;;;;;;5011283;28;20252;-53
2023/04/20 12:28:56;;;;;;;8.00;7.20;;;12.50;56.60;;;;;;5013499;28;20252;-50
2023/04/20 12:31:23;;;;;;;7.20;6.47;;;12.20;56.50;;;;;;5003432;28;20201;-53
2023/04/20 12:33:48;;;;;;;9.53;6.77;;;12.40;56.70;;;;;;5005914;28;20872;-50
2023/04/20 12:36:14;;;;;;;9.87;8.87;;;12.30;57.00;;;;;;5012197;28;20439;-53
2023/04/20 12:38:40;;;;;;;16.63;15.13;;;12.50;57.10;;;;;;5010341;28;20217;-53
2023/04/20 12:41:06;;;;;;;11.80;10.60;;;12.70;56.80;;;;;;5013780;28;20565;-53
2023/04/20 12:43:31;;;;;;;7.40;6.70;;;12.80;56.50;;;;;;5014069;28;20429;-50
2023/04/20 12:45:57;;;;;;;8.00;6.73;;;12.70;55.80;;;;;;5003655;28;20226;-49